Broadlands, Illinois
Current Conditions -  °F | °C
As of 7:22 PM on Thursday 27 Nov 2014 (Local Time) from KCMI Reporting Station
Scattered Clouds Scattered Clouds  
Wind Chill:   Ceiling: Unl
Heat Index: 20°   Visibility: 10mi
Dew Point: 15°   Wind: 9mph
Humidity: 81%   Direction: 270°W
Pressure: 30.44"   Gusts: NA
Location:  39.91°N, 87.99°W
Report Text: KCMI 280122Z 27008KT 10SM SCT028 M07/M09 A3044 RMK AO2 T10671094 $
Loading
Personal Weather Stations






























Interactive Weather Map New forecast layout! Learn more

10-Day Weather Forecast

Advertisements
Track Severe Weather on mobile